Time;durP1;ratioP1;P1;durP2;ratioP2;P2;SDS_P1;SDS_P2;PMS_P1;PMS_P2;Temp;Humidity;BMP_temperature;BMP_pressure;BME280_temperature;BME280_humidity;BME280_pressure;Samples;Min_cycle;Max_cycle;Signal;HPM_P1;HPM_P2
2021/12/05 00:21:13;;;;;;;11.70;10.67;;;1.50;99.90;;;;;;5052891;28;20517;-53
2021/12/05 00:23:43;;;;;;;10.93;8.77;;;1.50;99.90;;;;;;5059495;28;20486;-53
2021/12/05 00:26:14;;;;;;;9.30;7.80;;;1.60;99.90;;;;;;5065362;28;20444;-53
2021/12/05 00:29:03;;;;;;;11.93;10.63;;;1.50;99.90;;;;;;5067242;28;20454;-54
2021/12/05 00:31:47;;;;;;;9.10;7.93;;;1.50;99.90;;;;;;5067906;28;20552;-53
2021/12/05 00:57:07;;;;;;;15.07;11.10;;;1.50;99.90;;;;;;5073950;28;20429;-54
2021/12/05 00:59:45;;;;;;;12.37;8.80;;;1.50;99.90;;;;;;5070733;28;20494;-54
2021/12/05 01:02:30;;;;;;;7.73;6.63;;;1.60;99.90;;;;;;5072173;28;20492;-52
2021/12/05 01:05:21;;;;;;;6.20;5.70;;;1.60;99.90;;;;;;5065615;28;20455;-53
2021/12/05 01:11:10;;;;;;;9.70;6.77;;;1.70;99.90;;;;;;5044212;28;20428;-53
2021/12/05 01:13:44;;;;;;;7.90;7.10;;;1.80;99.90;;;;;;5073640;28;20711;-53
2021/12/05 01:16:16;;;;;;;6.03;5.43;;;1.90;99.90;;;;;;5072574;28;20486;-53
2021/12/05 01:18:44;;;;;;;7.23;5.97;;;1.80;99.90;;;;;;5072542;28;20441;-53
2021/12/05 01:21:15;;;;;;;5.53;5.03;;;1.40;99.90;;;;;;5075256;28;20492;-53
2021/12/05 01:23:53;;;;;;;5.90;5.40;;;1.30;99.90;;;;;;5072438;28;20480;-52
2021/12/05 01:26:25;;;;;;;6.37;5.73;;;1.30;99.90;;;;;;5073809;28;20502;-52
2021/12/05 01:31:51;;;;;;;7.70;6.90;;;1.60;99.90;;;;;;5066725;28;20452;-53
2021/12/05 01:34:33;;;;;;;7.13;6.53;;;1.70;99.90;;;;;;5069590;28;20443;-53
2021/12/05 01:37:10;;;;;;;6.87;6.27;;;1.80;99.90;;;;;;5070264;28;20452;-52
2021/12/05 01:39:51;;;;;;;6.73;6.03;;;1.90;99.90;;;;;;5072955;28;20878;-52
2021/12/05 01:51:15;;;;;;;6.80;6.20;;;1.70;99.90;;;;;;5051824;28;20564;-55
2021/12/05 01:54:18;;;;;;;6.73;6.00;;;1.80;99.90;;;;;;5071381;28;20460;-52
2021/12/05 01:59:43;;;;;;;6.53;5.90;;;1.90;99.90;;;;;;5072351;28;20927;-52
2021/12/05 02:16:29;;;;;;;8.30;6.70;;;1.40;99.90;;;;;;5066840;28;20423;-53
2021/12/05 02:30:09;;;;;;;4.73;4.13;;;1.50;99.90;;;;;;5069992;28;20501;-53
2021/12/05 02:36:07;;;;;;;5.70;5.17;;;1.50;99.90;;;;;;5011354;28;20435;-52
2021/12/05 02:41:38;;;;;;;6.30;5.60;;;1.70;99.90;;;;;;5000025;28;20459;-52
2021/12/05 02:44:12;;;;;;;8.77;6.43;;;1.80;99.90;;;;;;5005280;28;20502;-53
2021/12/05 02:46:42;;;;;;;5.53;5.07;;;1.80;99.90;;;;;;5038993;28;20452;-52
2021/12/05 02:49:12;;;;;;;5.30;4.90;;;1.80;99.90;;;;;;5068563;28;20476;-55
2021/12/05 02:51:40;;;;;;;6.10;5.60;;;1.80;99.90;;;;;;5072045;28;20474;-53
2021/12/05 02:54:13;;;;;;;5.30;4.80;;;1.90;99.90;;;;;;5070853;28;20515;-53
2021/12/05 02:56:41;;;;;;;4.37;4.07;;;1.90;99.90;;;;;;5067575;28;20459;-52
2021/12/05 02:59:21;;;;;;;5.50;4.80;;;1.90;99.90;;;;;;5066592;28;21032;-53
2021/12/05 03:01:53;;;;;;;5.40;4.90;;;1.90;99.90;;;;;;5070253;28;20467;-52
2021/12/05 03:04:23;;;;;;;7.37;6.60;;;1.90;99.90;;;;;;5072000;28;20898;-52
2021/12/05 03:06:52;;;;;;;7.20;6.60;;;2.00;99.90;;;;;;5070148;28;20847;-52
2021/12/05 03:09:22;;;;;;;6.67;6.07;;;2.00;99.90;;;;;;5069303;28;20536;-52
2021/12/05 03:11:50;;;;;;;6.67;5.70;;;1.90;99.90;;;;;;5069096;28;20980;-52
2021/12/05 03:14:17;;;;;;;5.67;5.27;;;1.90;99.90;;;;;;5070716;28;20468;-52
2021/12/05 03:16:45;;;;;;;5.33;4.83;;;1.90;99.90;;;;;;5072398;28;20472;-53
2021/12/05 03:19:13;;;;;;;5.40;5.00;;;1.90;99.90;;;;;;5070842;28;20471;-53
2021/12/05 03:21:42;;;;;;;5.13;4.67;;;1.80;99.90;;;;;;5071421;28;20495;-53
2021/12/05 03:24:11;;;;;;;5.03;4.53;;;1.80;99.90;;;;;;5070954;28;20506;-52
2021/12/05 03:26:43;;;;;;;5.43;5.03;;;1.90;99.90;;;;;;5069795;28;20479;-53
2021/12/05 03:29:13;;;;;;;5.80;5.17;;;1.90;99.90;;;;;;5072304;28;20878;-52
2021/12/05 03:31:41;;;;;;;5.43;5.03;;;1.90;99.90;;;;;;5069039;28;20460;-53
2021/12/05 03:34:12;;;;;;;5.27;4.87;;;1.90;99.90;;;;;;5070462;28;20956;-52
2021/12/05 03:36:41;;;;;;;6.20;5.70;;;1.90;99.90;;;;;;5071260;28;20479;-53
2021/12/05 03:39:10;;;;;;;6.67;6.00;;;1.90;99.90;;;;;;5068535;28;20467;-53
2021/12/05 03:41:39;;;;;;;6.23;5.73;;;1.90;99.90;;;;;;5068742;28;20492;-52
2021/12/05 03:44:08;;;;;;;6.97;6.33;;;2.00;99.90;;;;;;5069790;28;20521;-53
2021/12/05 03:46:35;;;;;;;6.50;6.00;;;2.00;99.90;;;;;;5071554;28;20468;-53
2021/12/05 03:49:07;;;;;;;7.10;6.40;;;2.00;99.90;;;;;;5070852;28;20479;-52
2021/12/05 03:51:36;;;;;;;6.40;5.80;;;2.00;99.90;;;;;;5068713;28;20524;-53
2021/12/05 03:54:05;;;;;;;7.20;6.47;;;2.00;99.90;;;;;;5070363;28;20609;-53
2021/12/05 03:56:33;;;;;;;7.10;6.50;;;2.00;99.90;;;;;;5072560;28;20502;-53
2021/12/05 03:59:03;;;;;;;6.67;6.10;;;1.80;99.90;;;;;;5070523;28;20543;-53
2021/12/05 04:01:30;;;;;;;7.80;7.10;;;1.80;99.90;;;;;;5067182;28;20847;-53
2021/12/05 04:03:57;;;;;;;7.43;6.83;;;1.80;99.90;;;;;;5070720;28;20500;-53
2021/12/05 04:06:26;;;;;;;7.70;7.00;;;1.90;99.90;;;;;;5073743;28;20478;-53
2021/12/05 04:08:54;;;;;;;7.40;6.50;;;1.80;99.90;;;;;;5074921;28;20874;-52
2021/12/05 04:11:27;;;;;;;8.10;7.40;;;1.80;99.90;;;;;;5072788;28;20508;-53
2021/12/05 04:13:54;;;;;;;8.00;7.30;;;1.90;99.90;;;;;;5073844;28;20456;-53
2021/12/05 04:16:24;;;;;;;6.97;6.27;;;1.80;99.90;;;;;;5072379;28;20539;-53
2021/12/05 04:18:50;;;;;;;8.50;7.60;;;1.80;99.90;;;;;;5073717;28;20479;-53
2021/12/05 04:21:18;;;;;;;7.77;6.80;;;1.90;99.90;;;;;;5075241;28;20503;-53
2021/12/05 04:23:47;;;;;;;8.30;7.50;;;1.90;99.90;;;;;;5072307;28;21809;-52
2021/12/05 04:26:14;;;;;;;7.47;6.77;;;2.00;99.90;;;;;;5072735;28;20472;-53
2021/12/05 04:28:42;;;;;;;7.13;6.43;;;2.00;99.90;;;;;;5074499;28;20924;-53
2021/12/05 04:31:09;;;;;;;8.10;6.90;;;2.00;99.90;;;;;;5073637;28;20499;-53
2021/12/05 04:33:38;;;;;;;6.73;6.13;;;2.00;99.90;;;;;;5071916;28;20497;-52
2021/12/05 04:36:06;;;;;;;7.03;6.43;;;2.00;99.90;;;;;;5071949;28;20480;-53
2021/12/05 04:38:33;;;;;;;7.13;6.40;;;1.90;99.90;;;;;;5073777;28;20441;-53
2021/12/05 04:41:00;;;;;;;5.77;5.27;;;1.70;99.90;;;;;;5074238;28;20494;-53
2021/12/05 04:43:27;;;;;;;6.93;6.27;;;1.70;99.90;;;;;;5071233;28;20484;-52
2021/12/05 04:45:54;;;;;;;7.40;6.80;;;1.40;99.90;;;;;;5072165;28;20864;-53
2021/12/05 04:48:21;;;;;;;7.03;6.30;;;1.50;99.90;;;;;;5072842;28;20484;-53
2021/12/05 04:50:49;;;;;;;6.97;6.37;;;1.50;99.90;;;;;;5074247;28;20475;-53
2021/12/05 04:53:16;;;;;;;7.27;6.03;;;1.40;99.90;;;;;;5071687;28;20447;-53
2021/12/05 04:55:43;;;;;;;5.50;4.97;;;1.50;99.90;;;;;;5072094;28;20537;-52
2021/12/05 04:58:10;;;;;;;5.90;5.40;;;1.70;99.90;;;;;;5070677;28;20472;-53
2021/12/05 05:00:42;;;;;;;6.63;6.03;;;1.80;99.90;;;;;;5073700;28;20475;-52
2021/12/05 05:03:10;;;;;;;7.80;7.20;;;1.80;99.90;;;;;;5071322;28;20944;-53
2021/12/05 05:05:41;;;;;;;8.43;7.53;;;1.90;99.90;;;;;;5072048;28;20451;-52
2021/12/05 05:08:09;;;;;;;9.03;8.13;;;1.90;99.90;;;;;;5072215;28;20464;-53
2021/12/05 05:10:37;;;;;;;8.13;7.33;;;1.90;99.90;;;;;;5073985;28;20444;-51
2021/12/05 05:13:04;;;;;;;8.40;7.60;;;2.00;99.90;;;;;;5078082;22;20520;-81
2021/12/05 05:15:32;;;;;;;7.87;7.07;;;2.00;99.90;;;;;;5050522;28;20456;-81
2021/12/05 05:18:02;;;;;;;8.43;7.53;;;2.00;99.90;;;;;;5041758;28;20466;-81
2021/12/05 05:20:35;;;;;;;8.40;7.70;;;2.00;99.90;;;;;;5026935;28;20447;-81
2021/12/05 05:23:19;;;;;;;8.93;8.13;;;2.00;99.90;;;;;;5028332;28;20453;-81
2021/12/05 05:26:29;;;;;;;8.33;7.53;;;2.00;99.90;;;;;;5029905;28;20497;-81
2021/12/05 05:29:11;;;;;;;8.27;7.47;;;2.10;99.90;;;;;;5021676;28;20438;-81
2021/12/05 05:45:46;;;;;;;9.47;8.57;;;2.10;99.90;;;;;;5025697;28;20439;-81
2021/12/05 05:50:58;;;;;;;8.40;7.60;;;2.10;99.90;;;;;;5028250;28;20433;-81
2021/12/05 05:53:25;;;;;;;8.10;7.40;;;2.10;99.90;;;;;;5030610;28;20471;-81
2021/12/05 05:55:55;;;;;;;10.10;9.10;;;2.20;99.90;;;;;;5025000;28;20474;-81
2021/12/05 05:58:28;;;;;;;9.20;8.30;;;2.10;99.90;;;;;;5025064;28;20462;-81
2021/12/05 06:01:02;;;;;;;8.77;8.07;;;2.20;99.90;;;;;;5028418;28;20434;-81
2021/12/05 06:03:30;;;;;;;8.77;7.97;;;2.20;99.90;;;;;;5027900;28;21081;-82
2021/12/05 06:06:00;;;;;;;9.03;8.23;;;2.20;99.90;;;;;;5030717;28;20537;-81
2021/12/05 06:08:29;;;;;;;9.57;8.57;;;2.20;99.90;;;;;;5029744;28;20505;-81
2021/12/05 06:10:58;;;;;;;9.83;8.87;;;1.90;99.90;;;;;;5023785;28;20454;-81
2021/12/05 06:13:27;;;;;;;11.87;10.70;;;1.90;99.90;;;;;;5024953;28;20444;-81
2021/12/05 06:15:54;;;;;;;11.10;9.03;;;2.00;99.90;;;;;;5021780;28;20489;-81
2021/12/05 06:18:21;;;;;;;11.17;9.97;;;2.00;99.90;;;;;;5026603;28;20493;-81
2021/12/05 06:20:49;;;;;;;9.83;8.93;;;2.10;99.90;;;;;;5027413;28;21129;-81
2021/12/05 06:23:17;;;;;;;12.30;10.93;;;2.10;99.90;;;;;;5029208;28;20520;-81
2021/12/05 06:25:49;;;;;;;11.10;9.97;;;2.10;99.90;;;;;;5028858;28;20497;-81
2021/12/05 06:28:19;;;;;;;11.60;10.47;;;2.10;99.90;;;;;;5026656;28;24106;-81
2021/12/05 06:30:54;;;;;;;12.33;9.53;;;2.10;99.90;;;;;;5022827;28;20568;-81
2021/12/05 06:41:48;;;;;;;12.10;9.53;;;2.10;99.90;;;;;;5023059;28;20469;-81
2021/12/05 06:47:02;;;;;;;9.33;8.33;;;2.00;99.90;;;;;;5026649;28;20926;-82
2021/12/05 06:49:29;;;;;;;8.80;8.00;;;2.00;99.90;;;;;;5027647;28;20995;-82
2021/12/05 06:51:56;;;;;;;9.03;8.20;;;2.00;99.90;;;;;;5028708;28;20987;-81
2021/12/05 06:54:24;;;;;;;9.90;9.00;;;2.10;99.90;;;;;;5026143;28;20438;-81
2021/12/05 06:56:51;;;;;;;8.77;7.97;;;2.10;99.90;;;;;;5028759;28;20943;-82
2021/12/05 06:59:18;;;;;;;11.03;9.37;;;2.10;99.90;;;;;;5022552;28;20770;-81
2021/12/05 07:01:45;;;;;;;10.83;8.80;;;2.20;99.90;;;;;;5027009;28;20479;-81
2021/12/05 07:04:29;;;;;;;9.80;8.83;;;2.20;99.90;;;;;;5031194;28;20570;-81
2021/12/05 07:06:57;;;;;;;11.00;10.00;;;2.20;99.90;;;;;;5022187;28;20537;-82
2021/12/05 07:09:24;;;;;;;12.00;10.80;;;2.20;99.90;;;;;;5024063;28;20482;-82
2021/12/05 07:12:08;;;;;;;11.70;10.60;;;2.20;99.90;;;;;;5024863;28;20458;-81
2021/12/05 07:14:43;;;;;;;13.37;11.67;;;2.10;99.90;;;;;;5027094;28;20442;-81
2021/12/05 07:19:46;;;;;;;10.73;9.20;;;1.80;99.90;;;;;;5028304;28;20421;-82
2021/12/05 07:22:21;;;;;;;11.20;9.80;;;1.70;99.90;;;;;;5022939;28;20935;-81
2021/12/05 07:24:51;;;;;;;13.13;10.87;;;1.70;99.90;;;;;;5029058;28;20501;-81
2021/12/05 07:41:17;;;;;;;13.20;10.90;;;1.80;99.90;;;;;;5028829;28;20452;-82
2021/12/05 07:43:44;;;;;;;17.93;13.43;;;1.90;99.90;;;;;;5031076;28;20482;-82
2021/12/05 07:46:11;;;;;;;12.07;10.73;;;1.90;99.90;;;;;;5032807;28;20485;-81
2021/12/05 07:48:42;;;;;;;13.03;11.63;;;1.90;99.90;;;;;;5032184;28;20551;-82
2021/12/05 07:51:22;;;;;;;12.60;11.07;;;1.90;99.90;;;;;;5028202;28;20913;-82
2021/12/05 07:53:55;;;;;;;12.17;10.93;;;1.90;99.90;;;;;;5030253;28;20446;-81
2021/12/05 07:56:34;;;;;;;12.77;11.57;;;1.90;99.90;;;;;;5028056;28;20968;-81
2021/12/05 07:59:14;;;;;;;12.30;11.17;;;2.00;99.90;;;;;;5029480;28;20889;-81
2021/12/05 08:15:32;;;;;;;12.43;11.10;;;2.10;99.90;;;;;;5026777;28;20484;-81
2021/12/05 08:17:59;;;;;;;13.20;11.80;;;2.10;99.90;;;;;;5023399;28;20493;-81
2021/12/05 08:20:30;;;;;;;21.77;17.50;;;2.10;99.90;;;;;;5026911;28;20477;-81
2021/12/05 08:23:01;;;;;;;43.33;30.50;;;2.10;99.90;;;;;;5028872;28;20462;-81
2021/12/05 08:25:29;;;;;;;18.73;16.60;;;2.10;99.90;;;;;;5029607;28;20508;-81
2021/12/05 08:28:06;;;;;;;17.30;15.60;;;2.10;99.90;;;;;;5024943;28;20467;-82
2021/12/05 08:30:36;;;;;;;15.17;13.50;;;2.20;99.90;;;;;;5026258;28;20472;-82
2021/12/05 08:44:42;;;;;;;19.00;16.27;;;2.10;99.90;;;;;;4947815;28;20469;-81
2021/12/05 10:07:36;;;;;;;16.07;13.07;;;2.10;99.90;;;;;;5023660;28;20437;-79
2021/12/05 10:10:17;;;;;;;13.60;11.20;;;2.10;99.90;;;;;;5024198;28;21154;-80
2021/12/05 10:15:36;;;;;;;11.97;10.63;;;2.10;99.90;;;;;;5023731;28;20981;-79
2021/12/05 10:26:41;;;;;;;12.50;11.40;;;2.00;99.90;;;;;;4980950;28;20964;-79
2021/12/05 10:35:11;;;;;;;24.87;20.03;;;2.10;99.90;;;;;;5031443;28;20437;-80
2021/12/05 10:37:47;;;;;;;21.53;19.23;;;2.10;99.90;;;;;;5028282;28;20475;-80
2021/12/05 10:40:20;;;;;;;15.67;14.03;;;2.20;99.90;;;;;;5025930;28;20534;-79
2021/12/05 10:42:49;;;;;;;15.50;12.20;;;2.20;99.90;;;;;;5028587;28;20800;-80
2021/12/05 10:45:31;;;;;;;20.10;17.67;;;2.20;99.90;;;;;;5026029;28;20561;-79
2021/12/05 10:48:00;;;;;;;22.10;16.87;;;2.40;99.90;;;;;;5027014;28;20488;-80
2021/12/05 10:50:32;;;;;;;26.77;19.50;;;2.50;99.90;;;;;;5023855;28;20485;-79
2021/12/05 10:53:28;;;;;;;22.57;20.17;;;2.50;99.90;;;;;;5032104;28;20525;-79
2021/12/05 10:56:02;;;;;;;26.27;21.17;;;2.50;99.90;;;;;;5029791;28;20442;-78
2021/12/05 10:58:34;;;;;;;27.03;22.97;;;2.50;99.90;;;;;;5052304;22;20912;-52
2021/12/05 11:01:09;;;;;;;27.33;22.20;;;2.50;99.90;;;;;;5046351;28;20595;-52
2021/12/05 11:03:36;;;;;;;27.40;21.57;;;2.50;99.90;;;;;;5045470;28;20472;-53
2021/12/05 11:06:22;;;;;;;26.93;22.00;;;2.50;99.90;;;;;;5046066;28;20572;-53
2021/12/05 11:08:54;;;;;;;26.60;22.90;;;2.50;99.90;;;;;;5046246;28;20548;-52
2021/12/05 11:11:22;;;;;;;26.13;22.33;;;2.50;99.90;;;;;;5045187;28;20810;-51
2021/12/05 11:13:50;;;;;;;30.40;23.50;;;2.50;99.90;;;;;;5133631;22;20524;-52
2021/12/05 11:16:37;;;;;;;26.60;20.20;;;2.40;99.90;;;;;;5066243;28;20538;-53
2021/12/05 11:19:15;;;;;;;22.53;19.43;;;2.40;99.90;;;;;;5068406;28;20523;-53
2021/12/05 11:21:48;;;;;;;20.37;16.70;;;2.40;99.90;;;;;;5062283;28;20520;-53
2021/12/05 11:24:20;;;;;;;15.87;14.37;;;2.40;99.90;;;;;;5047556;28;20480;-53
2021/12/05 11:27:08;;;;;;;19.00;15.53;;;2.40;99.90;;;;;;5043993;28;20506;-53
2021/12/05 11:29:50;;;;;;;16.37;14.67;;;2.40;99.90;;;;;;5044017;28;20438;-53
2021/12/05 11:32:19;;;;;;;15.27;13.10;;;2.30;99.90;;;;;;5042721;28;20572;-55
2021/12/05 11:34:48;;;;;;;14.47;12.97;;;1.80;99.90;;;;;;5042972;28;20449;-53
2021/12/05 11:37:17;;;;;;;18.60;15.53;;;1.80;99.90;;;;;;5044613;28;20471;-54
2021/12/05 11:39:44;;;;;;;19.73;17.73;;;1.90;99.90;;;;;;5045205;28;20990;-53
2021/12/05 11:42:21;;;;;;;22.87;16.10;;;2.00;99.90;;;;;;5041081;28;20500;-54
2021/12/05 11:44:54;;;;;;;17.80;15.00;;;2.00;99.90;;;;;;5042789;28;20931;-55
2021/12/05 11:47:23;;;;;;;15.87;14.20;;;2.10;99.90;;;;;;5045474;28;20445;-54
2021/12/05 11:49:50;;;;;;;12.63;11.33;;;2.10;99.90;;;;;;5043188;28;20505;-54
2021/12/05 11:52:24;;;;;;;12.67;11.40;;;2.00;99.90;;;;;;5044789;28;20541;-53
2021/12/05 11:54:52;;;;;;;13.30;12.00;;;2.10;99.90;;;;;;5044030;28;20519;-54
2021/12/05 11:57:22;;;;;;;16.10;14.33;;;2.10;99.90;;;;;;5046150;28;21080;-54
2021/12/05 11:59:51;;;;;;;11.63;10.23;;;1.70;99.90;;;;;;5044374;28;20540;-54
2021/12/05 12:02:21;;;;;;;15.77;14.27;;;1.80;99.90;;;;;;5040068;28;20609;-54
2021/12/05 12:04:52;;;;;;;13.40;12.10;;;1.90;99.90;;;;;;5040388;28;20481;-54
2021/12/05 12:07:34;;;;;;;14.30;11.80;;;2.00;99.90;;;;;;5041826;28;20517;-54
2021/12/05 12:10:09;;;;;;;10.57;9.43;;;2.00;99.90;;;;;;5039686;28;20438;-53
2021/12/05 12:12:37;;;;;;;9.90;8.70;;;2.10;99.90;;;;;;5043294;28;20504;-54
2021/12/05 12:15:05;;;;;;;9.30;8.30;;;2.10;99.90;;;;;;5037707;28;20438;-54
2021/12/05 12:17:32;;;;;;;8.67;7.77;;;2.10;99.90;;;;;;5045261;28;20465;-54
2021/12/05 12:20:00;;;;;;;9.90;9.00;;;2.10;99.90;;;;;;5041597;28;20889;-54
2021/12/05 12:22:28;;;;;;;7.67;7.07;;;2.10;99.90;;;;;;5039987;28;20480;-54
2021/12/05 12:25:00;;;;;;;9.00;8.13;;;2.20;99.90;;;;;;5045029;28;20472;-55
2021/12/05 12:27:28;;;;;;;8.63;7.40;;;2.20;99.90;;;;;;5045944;28;20441;-54
2021/12/05 12:29:58;;;;;;;9.30;8.50;;;2.10;99.90;;;;;;5044265;28;20513;-52
2021/12/05 12:32:30;;;;;;;9.60;7.87;;;2.10;99.90;;;;;;5047354;28;20553;-54
2021/12/05 12:35:04;;;;;;;8.37;7.50;;;2.10;99.90;;;;;;5046648;28;20516;-54
2021/12/05 12:37:31;;;;;;;8.80;7.87;;;2.10;99.90;;;;;;5043530;28;20453;-54
2021/12/05 12:40:00;;;;;;;8.67;7.87;;;2.10;99.90;;;;;;5044981;28;20472;-55
2021/12/05 12:42:30;;;;;;;8.90;7.17;;;1.80;99.90;;;;;;5042454;28;21052;-53
2021/12/05 12:45:05;;;;;;;8.87;7.03;;;1.70;99.90;;;;;;5045218;28;20480;-53
2021/12/05 12:47:35;;;;;;;5.97;5.37;;;1.80;99.90;;;;;;5048151;28;20556;-54
2021/12/05 12:50:25;;;;;;;5.90;5.30;;;1.60;99.90;;;;;;5047507;28;20685;-54
2021/12/05 12:53:17;;;;;;;6.13;5.20;;;1.70;99.90;;;;;;5050428;28;20829;-54
2021/12/05 12:55:53;;;;;;;6.70;5.93;;;1.70;99.90;;;;;;5051044;28;21068;-54
2021/12/05 12:58:51;;;;;;;8.10;6.10;;;1.70;99.90;;;;;;5043495;28;20511;-55
2021/12/05 13:01:38;;;;;;;7.13;5.87;;;1.90;99.90;;;;;;4962125;28;20445;-55
2021/12/05 13:12:49;;;;;;;7.77;5.50;;;2.00;99.90;;;;;;5041619;28;20450;-55
2021/12/05 13:15:22;;;;;;;8.30;4.90;;;2.10;99.90;;;;;;5046405;28;20453;-56
2021/12/05 13:17:51;;;;;;;5.23;4.73;;;2.10;99.90;;;;;;5043372;28;20971;-54
2021/12/05 13:20:21;;;;;;;5.23;4.63;;;2.10;99.90;;;;;;5045189;28;20537;-55
2021/12/05 13:23:07;;;;;;;5.40;4.90;;;1.90;99.90;;;;;;5049032;28;20563;-56
2021/12/05 13:25:57;;;;;;;5.80;5.20;;;2.00;99.90;;;;;;5047214;28;20573;-55
2021/12/05 13:28:31;;;;;;;7.13;6.17;;;2.00;99.90;;;;;;5049661;28;20449;-55
2021/12/05 13:30:59;;;;;;;51.33;31.37;;;2.10;99.90;;;;;;5045987;28;20465;-56
2021/12/05 13:33:30;;;;;;;13.53;9.57;;;2.10;99.90;;;;;;5047127;28;20551;-55
2021/12/05 13:35:58;;;;;;;8.73;6.90;;;2.10;99.90;;;;;;5048298;28;20496;-56
2021/12/05 13:38:34;;;;;;;12.50;9.40;;;2.10;99.90;;;;;;5048775;28;20475;-55
2021/12/05 13:41:12;;;;;;;7.63;5.47;;;2.20;99.90;;;;;;5045462;28;20476;-55
2021/12/05 13:43:41;;;;;;;6.07;5.03;;;2.20;99.90;;;;;;5046822;28;20550;-54
2021/12/05 13:46:34;;;;;;;6.37;5.53;;;2.20;99.90;;;;;;5048087;28;20966;-55
2021/12/05 13:49:02;;;;;;;5.77;5.03;;;2.10;99.90;;;;;;5045111;28;20552;-54
2021/12/05 13:51:30;;;;;;;6.83;6.23;;;1.90;99.90;;;;;;5046930;28;20449;-54
2021/12/05 13:54:01;;;;;;;7.00;6.40;;;2.00;99.90;;;;;;5045901;28;20465;-56
2021/12/05 13:56:29;;;;;;;10.07;7.50;;;2.00;99.90;;;;;;5048430;28;20429;-55
2021/12/05 13:59:07;;;;;;;7.97;5.63;;;2.00;99.90;;;;;;5037249;28;20874;-55
2021/12/05 14:01:44;;;;;;;8.07;6.70;;;2.10;99.90;;;;;;5042011;28;20456;-54
2021/12/05 14:04:24;;;;;;;6.43;5.93;;;2.10;99.90;;;;;;5045638;28;20500;-56
2021/12/05 14:06:57;;;;;;;6.37;5.70;;;2.20;99.90;;;;;;5046141;28;20556;-55
2021/12/05 14:09:31;;;;;;;7.03;5.80;;;2.20;99.90;;;;;;5047583;28;20452;-54
2021/12/05 14:12:04;;;;;;;6.17;5.60;;;2.30;99.90;;;;;;5043604;28;20504;-55
2021/12/05 14:14:35;;;;;;;7.17;6.23;;;2.30;99.90;;;;;;5042481;28;20468;-54
2021/12/05 14:17:06;;;;;;;7.50;6.00;;;2.30;99.90;;;;;;5045161;28;20520;-56
2021/12/05 14:19:36;;;;;;;6.07;5.47;;;2.30;99.90;;;;;;5046181;28;20474;-53
2021/12/05 14:22:06;;;;;;;5.50;5.00;;;2.30;99.90;;;;;;5046669;28;20477;-54
2021/12/05 14:24:36;;;;;;;5.73;4.97;;;2.30;99.90;;;;;;5045447;28;20540;-55
2021/12/05 14:27:07;;;;;;;6.73;6.13;;;2.40;99.90;;;;;;5044298;28;20568;-54
2021/12/05 14:29:39;;;;;;;7.37;5.63;;;2.40;99.90;;;;;;5045704;28;20481;-55
2021/12/05 14:32:09;;;;;;;7.83;5.40;;;2.40;99.90;;;;;;5046573;28;20437;-54
2021/12/05 14:34:38;;;;;;;5.53;4.93;;;2.40;99.90;;;;;;5044695;28;20481;-56
2021/12/05 14:37:08;;;;;;;7.70;6.50;;;2.30;99.90;;;;;;5045394;28;20984;-55
2021/12/05 14:39:37;;;;;;;10.47;7.73;;;2.30;99.90;;;;;;5045130;28;20475;-52
2021/12/05 14:42:06;;;;;;;8.53;7.63;;;2.30;99.90;;;;;;5044695;28;20532;-55
2021/12/05 14:44:35;;;;;;;8.90;8.00;;;2.30;99.90;;;;;;5046255;28;20544;-55
2021/12/05 14:47:05;;;;;;;8.83;7.93;;;2.30;99.90;;;;;;5046231;28;20564;-54
2021/12/05 14:49:35;;;;;;;7.73;7.00;;;2.30;99.90;;;;;;5041869;28;20488;-55
2021/12/05 14:52:03;;;;;;;5.80;5.30;;;2.30;99.90;;;;;;5046951;28;20608;-54
2021/12/05 14:54:35;;;;;;;6.73;5.30;;;2.30;99.90;;;;;;5043009;28;20483;-54
2021/12/05 14:57:07;;;;;;;6.80;5.50;;;2.30;99.90;;;;;;5041931;28;20446;-53
2021/12/05 14:59:36;;;;;;;5.63;5.23;;;2.20;99.90;;;;;;5047137;28;20537;-54
2021/12/05 15:02:05;;;;;;;7.03;6.33;;;2.20;99.90;;;;;;5044639;28;20548;-55
2021/12/05 15:04:37;;;;;;;8.17;6.43;;;2.20;99.90;;;;;;5045569;28;20534;-54
2021/12/05 15:07:06;;;;;;;6.63;5.93;;;2.10;99.90;;;;;;5043871;28;20477;-55
2021/12/05 15:09:36;;;;;;;7.90;7.20;;;2.10;99.90;;;;;;5045085;28;20459;-55
2021/12/05 15:12:08;;;;;;;7.60;6.90;;;1.90;99.90;;;;;;5047218;28;20446;-54
2021/12/05 15:14:40;;;;;;;8.40;7.70;;;2.00;99.90;;;;;;5045050;28;20445;-54
2021/12/05 15:17:11;;;;;;;7.40;6.50;;;2.00;99.90;;;;;;5047319;28;20464;-54
2021/12/05 15:19:40;;;;;;;7.20;6.50;;;2.00;99.90;;;;;;5045289;28;20524;-55
2021/12/05 15:22:12;;;;;;;7.60;6.83;;;2.00;99.90;;;;;;5045438;28;20445;-54
2021/12/05 15:24:40;;;;;;;8.67;7.93;;;2.00;99.90;;;;;;5046297;28;21098;-54
2021/12/05 15:27:13;;;;;;;9.07;7.43;;;2.10;99.90;;;;;;5043448;28;20560;-54
2021/12/05 15:29:46;;;;;;;8.20;7.13;;;2.10;99.90;;;;;;5050502;28;20470;-54
2021/12/05 15:32:17;;;;;;;8.70;7.37;;;2.00;99.90;;;;;;5048541;28;20485;-55
2021/12/05 15:34:44;;;;;;;8.47;7.50;;;2.10;99.90;;;;;;5048913;28;20470;-54
2021/12/05 15:37:14;;;;;;;8.93;8.00;;;2.00;99.90;;;;;;5049249;28;20473;-54
2021/12/05 15:39:43;;;;;;;9.03;8.13;;;2.00;99.90;;;;;;5048168;28;20457;-55
2021/12/05 15:42:17;;;;;;;9.23;8.33;;;1.90;99.90;;;;;;5046104;28;20473;-54
2021/12/05 15:44:46;;;;;;;10.53;9.47;;;1.80;99.90;;;;;;5040280;28;20485;-53
2021/12/05 15:47:16;;;;;;;13.30;11.70;;;1.60;99.90;;;;;;5042590;28;20482;-55
2021/12/05 15:50:02;;;;;;;10.40;9.20;;;1.50;99.90;;;;;;5047538;28;20864;-55
2021/12/05 15:52:37;;;;;;;12.70;10.53;;;1.40;99.90;;;;;;5043909;28;20849;-54
2021/12/05 15:55:08;;;;;;;10.83;9.80;;;1.40;99.90;;;;;;5049283;28;20473;-56
2021/12/05 15:57:36;;;;;;;12.30;9.33;;;1.30;99.90;;;;;;5048339;28;20502;-54
2021/12/05 16:00:11;;;;;;;11.50;10.40;;;1.30;99.90;;;;;;5048577;28;20866;-54
2021/12/05 16:02:40;;;;;;;13.27;10.37;;;1.30;99.90;;;;;;5045752;28;20963;-54
2021/12/05 16:05:15;;;;;;;11.77;10.33;;;1.30;99.90;;;;;;5048348;28;20536;-55
2021/12/05 16:07:42;;;;;;;12.27;10.53;;;1.40;99.90;;;;;;5050856;28;20508;-55
2021/12/05 16:10:21;;;;;;;12.57;10.63;;;1.50;99.90;;;;;;5049830;28;20499;-56
2021/12/05 16:12:50;;;;;;;13.40;11.30;;;1.60;99.90;;;;;;5051390;28;20506;-55
2021/12/05 16:15:21;;;;;;;10.50;9.43;;;1.70;99.90;;;;;;5051451;28;20513;-56
2021/12/05 16:17:57;;;;;;;11.60;10.20;;;1.70;99.90;;;;;;5049000;28;20878;-53
2021/12/05 16:20:27;;;;;;;13.17;9.87;;;1.80;99.90;;;;;;5048261;28;20468;-55
2021/12/05 16:23:12;;;;;;;10.77;9.43;;;1.90;99.90;;;;;;5049870;28;20492;-56
2021/12/05 16:25:43;;;;;;;15.30;10.57;;;1.90;99.90;;;;;;5047172;28;20464;-55
2021/12/05 16:28:13;;;;;;;14.03;12.00;;;2.00;99.90;;;;;;5050632;28;20544;-53
2021/12/05 16:30:45;;;;;;;11.77;10.30;;;2.00;99.90;;;;;;5053143;28;20439;-55
2021/12/05 16:33:14;;;;;;;11.73;9.37;;;2.00;99.90;;;;;;5050763;28;20501;-55
2021/12/05 16:35:46;;;;;;;11.57;10.40;;;2.00;99.90;;;;;;5051633;28;20473;-56
2021/12/05 16:38:24;;;;;;;15.10;10.93;;;1.90;99.90;;;;;;5042322;28;20540;-55
2021/12/05 16:40:58;;;;;;;11.13;9.60;;;1.90;99.90;;;;;;5051679;28;20434;-55
2021/12/05 16:43:26;;;;;;;13.80;11.27;;;2.00;99.90;;;;;;5050049;28;20523;-55
2021/12/05 16:46:04;;;;;;;11.77;10.57;;;2.00;99.90;;;;;;5049289;28;20484;-56
2021/12/05 16:48:31;;;;;;;17.83;11.13;;;2.00;99.90;;;;;;5052179;28;20483;-54
2021/12/05 16:51:11;;;;;;;16.23;12.63;;;2.00;99.90;;;;;;5054504;28;20476;-55
2021/12/05 16:53:43;;;;;;;12.97;10.47;;;2.00;99.90;;;;;;5052446;28;20999;-54
2021/12/05 16:56:13;;;;;;;13.77;12.33;;;2.00;99.90;;;;;;5051701;28;20441;-55
2021/12/05 16:58:42;;;;;;;15.30;13.70;;;2.10;99.90;;;;;;5052234;28;20513;-55
2021/12/05 17:01:15;;;;;;;12.63;11.10;;;2.10;99.90;;;;;;5051004;28;20464;-55
2021/12/05 17:03:44;;;;;;;13.80;12.37;;;2.10;99.90;;;;;;5051153;28;20493;-54
2021/12/05 17:06:11;;;;;;;12.17;10.97;;;2.10;99.90;;;;;;5049750;28;20481;-54
2021/12/05 17:08:44;;;;;;;17.47;13.23;;;2.10;99.90;;;;;;5048922;28;20544;-56
2021/12/05 17:11:13;;;;;;;14.87;12.70;;;2.10;99.90;;;;;;5049616;28;20453;-55
2021/12/05 17:13:43;;;;;;;18.97;13.53;;;2.10;99.90;;;;;;5084197;22;20500;-80
2021/12/05 17:16:14;;;;;;;15.90;13.30;;;2.10;99.90;;;;;;5068822;28;20556;-80
2021/12/05 17:18:45;;;;;;;12.40;11.10;;;2.10;99.90;;;;;;5071252;28;20449;-80
2021/12/05 17:21:16;;;;;;;13.37;12.03;;;2.00;99.90;;;;;;5069566;28;20445;-80
2021/12/05 17:23:46;;;;;;;17.03;15.23;;;2.00;99.90;;;;;;5068048;28;20788;-80
2021/12/05 17:26:19;;;;;;;15.83;13.63;;;2.00;99.90;;;;;;5068566;28;20523;-81
2021/12/05 17:28:50;;;;;;;16.80;15.10;;;2.00;99.90;;;;;;5071081;28;20846;-82
2021/12/05 17:31:29;;;;;;;19.40;13.90;;;1.90;99.90;;;;;;5069333;28;20817;-81
2021/12/05 17:33:59;;;;;;;20.60;15.20;;;2.00;99.90;;;;;;5063411;28;20450;-81
2021/12/05 17:36:30;;;;;;;24.17;17.13;;;1.70;99.90;;;;;;5068061;28;20937;-81
2021/12/05 17:39:01;;;;;;;23.23;16.20;;;1.50;99.90;;;;;;5062028;28;20515;-81
2021/12/05 17:41:30;;;;;;;20.67;16.60;;;1.50;99.90;;;;;;5068524;28;20588;-81